TAF LEMH
LEMH 270800Z 2709/2809 27020KT 9999 SCT030 TX15/2712Z TN04/2807Z BECMG 2717/2719 04008KT TEMPO 2709/2718 27020G30KT PROB30 TEMPO 2714/2718 TSRA FEW040CB TEMPO 2714/2724 4000 SHRA FEW040TCU=
METAR LEMH
LEMH 270830Z 26010KT 230V310 9999 VCSH BKN030 FEW032TCU 11/08 Q1001 RESHRA=
LEMH 270800Z 26010KT 230V290 9999 BKN030 12/07 Q1000=
LEMH 270730Z 25013KT 220V280 9999 BKN032 12/06 Q1000=
LEMH 270700Z 26009KT 210V290 9999 SCT030 12/06 Q1000=
LEMH 270630Z 26010KT 220V290 9999 SCT032 11/06 Q1000=
WC LEMH
WS LEMH
WV LEMH